sensor_id;sensor_type;location;lat;lon;timestamp;P1;durP1;ratioP1;P2;durP2;ratioP2
64714;SDS011;51144;53.002;6.506;2023-03-01T00:02:02;16.70;;;14.90;;
64714;SDS011;51144;53.002;6.506;2023-03-01T00:04:29;18.25;;;14.82;;
64714;SDS011;51144;53.002;6.506;2023-03-01T00:06:55;20.60;;;15.77;;
64714;SDS011;51144;53.002;6.506;2023-03-01T00:09:21;17.65;;;14.52;;
64714;SDS011;51144;53.002;6.506;2023-03-01T00:11:46;20.95;;;15.55;;
64714;SDS011;51144;53.002;6.506;2023-03-01T00:14:13;21.13;;;14.32;;
64714;SDS011;51144;53.002;6.506;2023-03-01T00:16:42;25.30;;;15.90;;
64714;SDS011;51144;53.002;6.506;2023-03-01T00:19:09;30.02;;;19.65;;
64714;SDS011;51144;53.002;6.506;2023-03-01T00:21:41;23.50;;;18.13;;
64714;SDS011;51144;53.002;6.506;2023-03-01T00:24:07;22.02;;;15.80;;
64714;SDS011;51144;53.002;6.506;2023-03-01T00:26:33;24.65;;;16.83;;
64714;SDS011;51144;53.002;6.506;2023-03-01T00:28:59;20.55;;;16.75;;
64714;SDS011;51144;53.002;6.506;2023-03-01T00:31:26;21.40;;;15.85;;
64714;SDS011;51144;53.002;6.506;2023-03-01T00:33:54;21.38;;;16.05;;
64714;SDS011;51144;53.002;6.506;2023-03-01T00:36:22;22.10;;;16.63;;
64714;SDS011;51144;53.002;6.506;2023-03-01T00:38:49;21.20;;;15.82;;
64714;SDS011;51144;53.002;6.506;2023-03-01T00:41:15;20.23;;;15.90;;
64714;SDS011;51144;53.002;6.506;2023-03-01T00:43:43;21.23;;;16.33;;
64714;SDS011;51144;53.002;6.506;2023-03-01T00:46:10;20.52;;;16.30;;
64714;SDS011;51144;53.002;6.506;2023-03-01T00:48:37;21.20;;;15.00;;
64714;SDS011;51144;53.002;6.506;2023-03-01T00:51:25;20.17;;;15.52;;
64714;SDS011;51144;53.002;6.506;2023-03-01T00:53:52;23.50;;;15.68;;
64714;SDS011;51144;53.002;6.506;2023-03-01T00:56:19;21.17;;;15.93;;
64714;SDS011;51144;53.002;6.506;2023-03-01T00:58:44;39.28;;;21.08;;
64714;SDS011;51144;53.002;6.506;2023-03-01T01:01:12;33.97;;;20.40;;
64714;SDS011;51144;53.002;6.506;2023-03-01T01:06:15;113.32;;;25.17;;
64714;SDS011;51144;53.002;6.506;2023-03-01T01:08:51;288.95;;;27.25;;
64714;SDS011;51144;53.002;6.506;2023-03-01T01:11:18;370.05;;;31.70;;
64714;SDS011;51144;53.002;6.506;2023-03-01T01:13:45;353.00;;;30.13;;
64714;SDS011;51144;53.002;6.506;2023-03-01T01:16:11;402.33;;;30.08;;
64714;SDS011;51144;53.002;6.506;2023-03-01T01:18:37;471.40;;;35.90;;
64714;SDS011;51144;53.002;6.506;2023-03-01T01:21:08;393.27;;;29.30;;
64714;SDS011;51144;53.002;6.506;2023-03-01T01:23:36;318.02;;;26.45;;
64714;SDS011;51144;53.002;6.506;2023-03-01T01:26:04;372.98;;;28.10;;
64714;SDS011;51144;53.002;6.506;2023-03-01T01:28:34;286.88;;;24.67;;
64714;SDS011;51144;53.002;6.506;2023-03-01T01:30:59;361.40;;;29.40;;
64714;SDS011;51144;53.002;6.506;2023-03-01T01:33:25;316.90;;;26.92;;
64714;SDS011;51144;53.002;6.506;2023-03-01T01:35:51;279.30;;;22.25;;
64714;SDS011;51144;53.002;6.506;2023-03-01T01:38:17;168.50;;;19.63;;
64714;SDS011;51144;53.002;6.506;2023-03-01T01:40:43;212.18;;;23.23;;
64714;SDS011;51144;53.002;6.506;2023-03-01T01:43:18;255.90;;;26.35;;
64714;SDS011;51144;53.002;6.506;2023-03-01T01:45:44;190.80;;;20.08;;
64714;SDS011;51144;53.002;6.506;2023-03-01T01:48:10;230.35;;;22.45;;
64714;SDS011;51144;53.002;6.506;2023-03-01T01:50:40;149.57;;;19.92;;
64714;SDS011;51144;53.002;6.506;2023-03-01T01:53:08;176.95;;;21.73;;
64714;SDS011;51144;53.002;6.506;2023-03-01T01:55:38;99.45;;;18.88;;
64714;SDS011;51144;53.002;6.506;2023-03-01T01:58:11;70.38;;;17.17;;
64714;SDS011;51144;53.002;6.506;2023-03-01T02:00:39;82.70;;;17.05;;
64714;SDS011;51144;53.002;6.506;2023-03-01T02:03:07;74.85;;;16.08;;
64714;SDS011;51144;53.002;6.506;2023-03-01T02:05:38;70.75;;;16.40;;
64714;SDS011;51144;53.002;6.506;2023-03-01T02:08:27;96.22;;;15.68;;
64714;SDS011;51144;53.002;6.506;2023-03-01T02:10:55;119.45;;;15.50;;
64714;SDS011;51144;53.002;6.506;2023-03-01T02:13:22;120.65;;;15.27;;
64714;SDS011;51144;53.002;6.506;2023-03-01T02:15:48;135.13;;;16.33;;
64714;SDS011;51144;53.002;6.506;2023-03-01T02:18:14;99.57;;;16.08;;
64714;SDS011;51144;53.002;6.506;2023-03-01T02:23:11;87.35;;;16.85;;
64714;SDS011;51144;53.002;6.506;2023-03-01T02:28:33;77.55;;;15.25;;
64714;SDS011;51144;53.002;6.506;2023-03-01T02:31:01;81.20;;;16.10;;
64714;SDS011;51144;53.002;6.506;2023-03-01T02:33:49;70.88;;;14.57;;
64714;SDS011;51144;53.002;6.506;2023-03-01T02:36:17;63.33;;;14.35;;
64714;SDS011;51144;53.002;6.506;2023-03-01T02:38:46;108.75;;;15.90;;
64714;SDS011;51144;53.002;6.506;2023-03-01T02:41:15;34.17;;;13.40;;
64714;SDS011;51144;53.002;6.506;2023-03-01T02:43:42;98.22;;;15.38;;
64714;SDS011;51144;53.002;6.506;2023-03-01T02:46:19;31.75;;;14.05;;
64714;SDS011;51144;53.002;6.506;2023-03-01T02:48:51;41.97;;;13.18;;
64714;SDS011;51144;53.002;6.506;2023-03-01T02:54:52;137.48;;;15.60;;
64714;SDS011;51144;53.002;6.506;2023-03-01T02:57:36;127.88;;;14.50;;
64714;SDS011;51144;53.002;6.506;2023-03-01T03:00:06;141.38;;;16.58;;
64714;SDS011;51144;53.002;6.506;2023-03-01T03:02:44;111.18;;;14.48;;
64714;SDS011;51144;53.002;6.506;2023-03-01T03:05:15;105.15;;;16.05;;
64714;SDS011;51144;53.002;6.506;2023-03-01T03:07:44;69.10;;;14.85;;
64714;SDS011;51144;53.002;6.506;2023-03-01T03:10:12;52.15;;;13.77;;
64714;SDS011;51144;53.002;6.506;2023-03-01T03:12:44;54.28;;;13.40;;
64714;SDS011;51144;53.002;6.506;2023-03-01T03:15:17;90.25;;;15.88;;
64714;SDS011;51144;53.002;6.506;2023-03-01T03:17:44;122.47;;;17.65;;
64714;SDS011;51144;53.002;6.506;2023-03-01T03:20:10;71.40;;;14.68;;
64714;SDS011;51144;53.002;6.506;2023-03-01T03:22:38;54.75;;;14.93;;
64714;SDS011;51144;53.002;6.506;2023-03-01T03:25:05;67.03;;;14.38;;
64714;SDS011;51144;53.002;6.506;2023-03-01T03:27:35;98.18;;;16.15;;
64714;SDS011;51144;53.002;6.506;2023-03-01T03:30:02;35.97;;;13.70;;
64714;SDS011;51144;53.002;6.506;2023-03-01T03:32:36;18.83;;;14.35;;
64714;SDS011;51144;53.002;6.506;2023-03-01T03:35:05;18.42;;;14.70;;
64714;SDS011;51144;53.002;6.506;2023-03-01T03:37:37;147.38;;;17.85;;
64714;SDS011;51144;53.002;6.506;2023-03-01T03:40:23;71.68;;;14.95;;
64714;SDS011;51144;53.002;6.506;2023-03-01T03:42:49;77.60;;;14.63;;
64714;SDS011;51144;53.002;6.506;2023-03-01T03:45:15;76.10;;;15.90;;
64714;SDS011;51144;53.002;6.506;2023-03-01T03:47:41;40.78;;;15.27;;
64714;SDS011;51144;53.002;6.506;2023-03-01T03:50:08;59.25;;;15.25;;
64714;SDS011;51144;53.002;6.506;2023-03-01T03:52:35;19.85;;;13.93;;
64714;SDS011;51144;53.002;6.506;2023-03-01T03:55:00;26.10;;;14.73;;
64714;SDS011;51144;53.002;6.506;2023-03-01T03:57:26;16.90;;;13.93;;
64714;SDS011;51144;53.002;6.506;2023-03-01T03:59:51;20.38;;;14.40;;
64714;SDS011;51144;53.002;6.506;2023-03-01T04:02:17;23.33;;;13.15;;
64714;SDS011;51144;53.002;6.506;2023-03-01T04:04:50;58.15;;;13.48;;
64714;SDS011;51144;53.002;6.506;2023-03-01T04:07:18;59.42;;;13.88;;
64714;SDS011;51144;53.002;6.506;2023-03-01T04:09:44;75.15;;;15.32;;
64714;SDS011;51144;53.002;6.506;2023-03-01T04:12:09;39.45;;;13.15;;
64714;SDS011;51144;53.002;6.506;2023-03-01T04:14:35;52.53;;;13.45;;
64714;SDS011;51144;53.002;6.506;2023-03-01T04:17:01;71.35;;;13.68;;
64714;SDS011;51144;53.002;6.506;2023-03-01T04:19:29;59.15;;;14.02;;
64714;SDS011;51144;53.002;6.506;2023-03-01T04:22:03;21.75;;;14.15;;
64714;SDS011;51144;53.002;6.506;2023-03-01T04:24:34;115.18;;;12.85;;
64714;SDS011;51144;53.002;6.506;2023-03-01T04:27:01;29.55;;;11.20;;
64714;SDS011;51144;53.002;6.506;2023-03-01T04:29:26;15.07;;;12.00;;
64714;SDS011;51144;53.002;6.506;2023-03-01T04:31:52;19.80;;;12.00;;
64714;SDS011;51144;53.002;6.506;2023-03-01T04:34:18;13.73;;;12.00;;
64714;SDS011;51144;53.002;6.506;2023-03-01T04:36:44;30.50;;;12.35;;
64714;SDS011;51144;53.002;6.506;2023-03-01T04:39:10;24.40;;;12.77;;
64714;SDS011;51144;53.002;6.506;2023-03-01T04:41:38;15.57;;;11.82;;
64714;SDS011;51144;53.002;6.506;2023-03-01T04:44:06;13.30;;;11.73;;
64714;SDS011;51144;53.002;6.506;2023-03-01T04:46:34;12.55;;;10.80;;
64714;SDS011;51144;53.002;6.506;2023-03-01T04:49:00;12.85;;;10.65;;
64714;SDS011;51144;53.002;6.506;2023-03-01T04:51:26;11.52;;;10.38;;
64714;SDS011;51144;53.002;6.506;2023-03-01T04:53:52;12.07;;;10.65;;
64714;SDS011;51144;53.002;6.506;2023-03-01T04:56:18;11.90;;;10.57;;
64714;SDS011;51144;53.002;6.506;2023-03-01T04:58:43;13.80;;;11.73;;
64714;SDS011;51144;53.002;6.506;2023-03-01T05:01:10;12.40;;;11.10;;
64714;SDS011;51144;53.002;6.506;2023-03-01T05:03:43;12.88;;;11.38;;
64714;SDS011;51144;53.002;6.506;2023-03-01T05:06:09;12.38;;;10.77;;
64714;SDS011;51144;53.002;6.506;2023-03-01T05:08:36;11.93;;;10.73;;
64714;SDS011;51144;53.002;6.506;2023-03-01T05:11:05;12.57;;;10.93;;
64714;SDS011;51144;53.002;6.506;2023-03-01T05:13:34;13.50;;;11.98;;
64714;SDS011;51144;53.002;6.506;2023-03-01T05:16:01;12.00;;;10.68;;
64714;SDS011;51144;53.002;6.506;2023-03-01T05:18:28;12.85;;;11.45;;
64714;SDS011;51144;53.002;6.506;2023-03-01T05:20:55;12.32;;;11.05;;
64714;SDS011;51144;53.002;6.506;2023-03-01T05:23:26;14.23;;;11.80;;
64714;SDS011;51144;53.002;6.506;2023-03-01T05:25:52;12.35;;;11.05;;
64714;SDS011;51144;53.002;6.506;2023-03-01T05:28:18;12.00;;;10.73;;
64714;SDS011;51144;53.002;6.506;2023-03-01T05:30:45;13.95;;;11.30;;
64714;SDS011;51144;53.002;6.506;2023-03-01T05:33:11;13.80;;;11.93;;
64714;SDS011;51144;53.002;6.506;2023-03-01T05:35:40;13.68;;;11.38;;
64714;SDS011;51144;53.002;6.506;2023-03-01T05:38:08;11.93;;;10.60;;
64714;SDS011;51144;53.002;6.506;2023-03-01T05:40:38;13.40;;;12.02;;
64714;SDS011;51144;53.002;6.506;2023-03-01T05:43:04;12.70;;;11.40;;
64714;SDS011;51144;53.002;6.506;2023-03-01T05:45:30;12.80;;;11.45;;
64714;SDS011;51144;53.002;6.506;2023-03-01T05:47:57;13.02;;;11.15;;
64714;SDS011;51144;53.002;6.506;2023-03-01T05:50:32;13.88;;;11.45;;
64714;SDS011;51144;53.002;6.506;2023-03-01T05:53:01;13.82;;;12.45;;
64714;SDS011;51144;53.002;6.506;2023-03-01T05:55:30;14.10;;;12.02;;
64714;SDS011;51144;53.002;6.506;2023-03-01T05:57:58;16.98;;;13.13;;
64714;SDS011;51144;53.002;6.506;2023-03-01T06:00:25;14.05;;;12.63;;
64714;SDS011;51144;53.002;6.506;2023-03-01T06:02:52;17.25;;;13.65;;
64714;SDS011;51144;53.002;6.506;2023-03-01T06:05:18;13.68;;;12.20;;
64714;SDS011;51144;53.002;6.506;2023-03-01T06:07:44;15.02;;;13.40;;
64714;SDS011;51144;53.002;6.506;2023-03-01T06:10:10;21.45;;;13.77;;
64714;SDS011;51144;53.002;6.506;2023-03-01T06:12:38;17.17;;;13.48;;
64714;SDS011;51144;53.002;6.506;2023-03-01T06:15:05;15.75;;;13.20;;
64714;SDS011;51144;53.002;6.506;2023-03-01T06:17:32;13.38;;;11.52;;
64714;SDS011;51144;53.002;6.506;2023-03-01T06:20:02;14.57;;;11.73;;
64714;SDS011;51144;53.002;6.506;2023-03-01T06:22:29;14.35;;;12.00;;
64714;SDS011;51144;53.002;6.506;2023-03-01T06:24:55;14.00;;;12.23;;
64714;SDS011;51144;53.002;6.506;2023-03-01T06:27:20;16.17;;;12.27;;
64714;SDS011;51144;53.002;6.506;2023-03-01T06:29:46;14.50;;;11.55;;
64714;SDS011;51144;53.002;6.506;2023-03-01T06:32:11;12.30;;;11.05;;
64714;SDS011;51144;53.002;6.506;2023-03-01T06:34:37;12.45;;;11.13;;
64714;SDS011;51144;53.002;6.506;2023-03-01T06:37:03;13.27;;;11.88;;
64714;SDS011;51144;53.002;6.506;2023-03-01T06:39:30;15.40;;;12.57;;
64714;SDS011;51144;53.002;6.506;2023-03-01T06:41:56;14.88;;;13.25;;
64714;SDS011;51144;53.002;6.506;2023-03-01T06:44:22;14.52;;;12.73;;
64714;SDS011;51144;53.002;6.506;2023-03-01T06:46:47;16.52;;;14.30;;
64714;SDS011;51144;53.002;6.506;2023-03-01T06:49:13;15.50;;;13.77;;
64714;SDS011;51144;53.002;6.506;2023-03-01T06:51:41;14.98;;;13.32;;
64714;SDS011;51144;53.002;6.506;2023-03-01T06:54:06;17.63;;;13.85;;
64714;SDS011;51144;53.002;6.506;2023-03-01T06:56:32;16.30;;;13.52;;
64714;SDS011;51144;53.002;6.506;2023-03-01T06:58:58;18.48;;;14.98;;
64714;SDS011;51144;53.002;6.506;2023-03-01T07:01:24;20.23;;;16.08;;
64714;SDS011;51144;53.002;6.506;2023-03-01T07:03:49;16.35;;;14.57;;
64714;SDS011;51144;53.002;6.506;2023-03-01T07:06:15;18.27;;;15.32;;
64714;SDS011;51144;53.002;6.506;2023-03-01T07:08:42;19.88;;;17.33;;
64714;SDS011;51144;53.002;6.506;2023-03-01T07:11:08;18.35;;;14.65;;
64714;SDS011;51144;53.002;6.506;2023-03-01T07:13:34;15.60;;;13.20;;
64714;SDS011;51144;53.002;6.506;2023-03-01T07:15:59;12.38;;;11.07;;
64714;SDS011;51144;53.002;6.506;2023-03-01T07:18:25;12.25;;;10.50;;
64714;SDS011;51144;53.002;6.506;2023-03-01T07:20:51;10.88;;;9.88;;
64714;SDS011;51144;53.002;6.506;2023-03-01T07:23:16;11.55;;;10.32;;
64714;SDS011;51144;53.002;6.506;2023-03-01T07:25:42;11.95;;;10.73;;
64714;SDS011;51144;53.002;6.506;2023-03-01T07:28:08;14.32;;;10.07;;
64714;SDS011;51144;53.002;6.506;2023-03-01T07:30:33;10.73;;;9.73;;
64714;SDS011;51144;53.002;6.506;2023-03-01T07:32:59;10.38;;;9.38;;
64714;SDS011;51144;53.002;6.506;2023-03-01T07:35:25;10.55;;;9.45;;
64714;SDS011;51144;53.002;6.506;2023-03-01T07:37:52;9.52;;;8.55;;
64714;SDS011;51144;53.002;6.506;2023-03-01T07:40:18;11.55;;;10.00;;
64714;SDS011;51144;53.002;6.506;2023-03-01T07:42:44;10.10;;;9.10;;
64714;SDS011;51144;53.002;6.506;2023-03-01T07:45:10;10.57;;;9.48;;
64714;SDS011;51144;53.002;6.506;2023-03-01T07:47:36;13.45;;;10.93;;
64714;SDS011;51144;53.002;6.506;2023-03-01T07:50:02;13.55;;;10.75;;
64714;SDS011;51144;53.002;6.506;2023-03-01T07:52:29;13.20;;;11.77;;
64714;SDS011;51144;53.002;6.506;2023-03-01T07:54:55;12.15;;;10.85;;
64714;SDS011;51144;53.002;6.506;2023-03-01T07:57:21;14.88;;;11.90;;
64714;SDS011;51144;53.002;6.506;2023-03-01T07:59:47;14.90;;;12.63;;
64714;SDS011;51144;53.002;6.506;2023-03-01T08:02:12;14.55;;;12.55;;
64714;SDS011;51144;53.002;6.506;2023-03-01T08:04:40;18.38;;;13.35;;
64714;SDS011;51144;53.002;6.506;2023-03-01T08:07:06;17.05;;;13.48;;
64714;SDS011;51144;53.002;6.506;2023-03-01T08:09:33;17.90;;;13.68;;
64714;SDS011;51144;53.002;6.506;2023-03-01T08:12:00;16.40;;;13.95;;
64714;SDS011;51144;53.002;6.506;2023-03-01T08:14:26;17.25;;;14.68;;
64714;SDS011;51144;53.002;6.506;2023-03-01T08:16:51;25.23;;;20.67;;
64714;SDS011;51144;53.002;6.506;2023-03-01T08:19:17;18.20;;;15.98;;
64714;SDS011;51144;53.002;6.506;2023-03-01T08:21:43;17.15;;;15.20;;
64714;SDS011;51144;53.002;6.506;2023-03-01T08:24:08;23.13;;;15.52;;
64714;SDS011;51144;53.002;6.506;2023-03-01T08:26:37;17.58;;;14.68;;
64714;SDS011;51144;53.002;6.506;2023-03-01T08:29:02;19.23;;;15.45;;
64714;SDS011;51144;53.002;6.506;2023-03-01T08:31:29;19.50;;;15.52;;
64714;SDS011;51144;53.002;6.506;2023-03-01T08:36:30;22.55;;;16.33;;
64714;SDS011;51144;53.002;6.506;2023-03-01T08:38:57;17.52;;;15.02;;
64714;SDS011;51144;53.002;6.506;2023-03-01T08:41:23;17.50;;;14.60;;
64714;SDS011;51144;53.002;6.506;2023-03-01T08:43:49;16.38;;;14.65;;
64714;SDS011;51144;53.002;6.506;2023-03-01T08:46:15;16.63;;;14.55;;
64714;SDS011;51144;53.002;6.506;2023-03-01T08:48:41;16.88;;;13.77;;
64714;SDS011;51144;53.002;6.506;2023-03-01T08:51:14;16.67;;;13.43;;
64714;SDS011;51144;53.002;6.506;2023-03-01T08:53:42;16.00;;;14.30;;
64714;SDS011;51144;53.002;6.506;2023-03-01T08:56:08;19.45;;;15.02;;
64714;SDS011;51144;53.002;6.506;2023-03-01T08:58:35;16.75;;;14.20;;
64714;SDS011;51144;53.002;6.506;2023-03-01T09:01:06;18.05;;;16.02;;
64714;SDS011;51144;53.002;6.506;2023-03-01T09:03:33;20.48;;;15.35;;
64714;SDS011;51144;53.002;6.506;2023-03-01T09:06:02;21.77;;;16.13;;
64714;SDS011;51144;53.002;6.506;2023-03-01T09:08:29;26.85;;;17.35;;
64714;SDS011;51144;53.002;6.506;2023-03-01T09:10:55;23.10;;;19.10;;
64714;SDS011;51144;53.002;6.506;2023-03-01T09:13:21;24.33;;;18.92;;
64714;SDS011;51144;53.002;6.506;2023-03-01T09:15:49;25.75;;;19.88;;
64714;SDS011;51144;53.002;6.506;2023-03-01T09:18:15;26.33;;;18.92;;
64714;SDS011;51144;53.002;6.506;2023-03-01T09:20:41;22.92;;;19.05;;
64714;SDS011;51144;53.002;6.506;2023-03-01T09:23:06;22.90;;;19.23;;
64714;SDS011;51144;53.002;6.506;2023-03-01T09:25:33;22.70;;;19.10;;
64714;SDS011;51144;53.002;6.506;2023-03-01T09:27:59;24.65;;;19.73;;
64714;SDS011;51144;53.002;6.506;2023-03-01T09:30:25;22.35;;;19.58;;
64714;SDS011;51144;53.002;6.506;2023-03-01T09:32:51;26.73;;;20.25;;
64714;SDS011;51144;53.002;6.506;2023-03-01T09:35:17;25.65;;;19.30;;
64714;SDS011;51144;53.002;6.506;2023-03-01T09:37:44;23.33;;;19.65;;
64714;SDS011;51144;53.002;6.506;2023-03-01T09:40:15;24.90;;;19.85;;
64714;SDS011;51144;53.002;6.506;2023-03-01T09:42:46;25.13;;;20.10;;
64714;SDS011;51144;53.002;6.506;2023-03-01T09:45:26;24.33;;;20.48;;
64714;SDS011;51144;53.002;6.506;2023-03-01T09:47:58;20.80;;;17.95;;
64714;SDS011;51144;53.002;6.506;2023-03-01T09:50:25;24.23;;;20.02;;
64714;SDS011;51144;53.002;6.506;2023-03-01T09:53:13;24.70;;;19.85;;
64714;SDS011;51144;53.002;6.506;2023-03-01T09:55:43;29.15;;;20.40;;
64714;SDS011;51144;53.002;6.506;2023-03-01T09:58:28;23.75;;;18.45;;
64714;SDS011;51144;53.002;6.506;2023-03-01T10:09:36;23.60;;;18.15;;
64714;SDS011;51144;53.002;6.506;2023-03-01T10:12:08;19.95;;;17.77;;
64714;SDS011;51144;53.002;6.506;2023-03-01T10:14:38;20.95;;;17.80;;
64714;SDS011;51144;53.002;6.506;2023-03-01T10:17:12;21.83;;;17.40;;
64714;SDS011;51144;53.002;6.506;2023-03-01T10:19:46;21.10;;;18.52;;
64714;SDS011;51144;53.002;6.506;2023-03-01T10:22:19;21.60;;;17.90;;
64714;SDS011;51144;53.002;6.506;2023-03-01T10:24:53;19.90;;;16.75;;
64714;SDS011;51144;53.002;6.506;2023-03-01T10:27:23;19.73;;;17.52;;
64714;SDS011;51144;53.002;6.506;2023-03-01T10:32:25;19.98;;;17.55;;
64714;SDS011;51144;53.002;6.506;2023-03-01T10:34:51;22.33;;;18.15;;
64714;SDS011;51144;53.002;6.506;2023-03-01T10:37:17;20.15;;;18.02;;
64714;SDS011;51144;53.002;6.506;2023-03-01T10:42:31;17.08;;;13.45;;
64714;SDS011;51144;53.002;6.506;2023-03-01T15:52:49;22.23;;;14.88;;
64714;SDS011;51144;53.002;6.506;2023-03-01T15:55:18;16.10;;;13.00;;
64714;SDS011;51144;53.002;6.506;2023-03-01T15:57:48;16.38;;;13.05;;
64714;SDS011;51144;53.002;6.506;2023-03-01T16:00:15;18.52;;;13.68;;
64714;SDS011;51144;53.002;6.506;2023-03-01T16:02:42;16.83;;;15.05;;
64714;SDS011;51144;53.002;6.506;2023-03-01T16:05:13;17.25;;;15.30;;
64714;SDS011;51144;53.002;6.506;2023-03-01T16:07:44;16.65;;;14.20;;
64714;SDS011;51144;53.002;6.506;2023-03-01T16:10:09;18.15;;;14.55;;
64714;SDS011;51144;53.002;6.506;2023-03-01T16:12:35;17.92;;;15.93;;
64714;SDS011;51144;53.002;6.506;2023-03-01T16:15:01;17.20;;;15.02;;
64714;SDS011;51144;53.002;6.506;2023-03-01T16:17:27;20.30;;;16.55;;
64714;SDS011;51144;53.002;6.506;2023-03-01T16:19:53;16.92;;;15.15;;
64714;SDS011;51144;53.002;6.506;2023-03-01T16:22:18;17.33;;;14.70;;
64714;SDS011;51144;53.002;6.506;2023-03-01T16:24:50;16.50;;;14.77;;
64714;SDS011;51144;53.002;6.506;2023-03-01T16:27:15;17.20;;;14.52;;
64714;SDS011;51144;53.002;6.506;2023-03-01T16:29:41;17.75;;;14.60;;
64714;SDS011;51144;53.002;6.506;2023-03-01T16:32:07;15.68;;;14.02;;
64714;SDS011;51144;53.002;6.506;2023-03-01T16:34:32;20.27;;;15.45;;
64714;SDS011;51144;53.002;6.506;2023-03-01T16:36:58;17.65;;;15.38;;
64714;SDS011;51144;53.002;6.506;2023-03-01T16:39:23;18.45;;;16.40;;
64714;SDS011;51144;53.002;6.506;2023-03-01T16:41:49;17.83;;;15.65;;
64714;SDS011;51144;53.002;6.506;2023-03-01T16:44:15;19.13;;;17.13;;
64714;SDS011;51144;53.002;6.506;2023-03-01T16:46:41;19.15;;;17.13;;
64714;SDS011;51144;53.002;6.506;2023-03-01T16:49:07;18.77;;;16.60;;
64714;SDS011;51144;53.002;6.506;2023-03-01T16:51:33;19.80;;;16.77;;
64714;SDS011;51144;53.002;6.506;2023-03-01T16:54:00;19.85;;;17.45;;
64714;SDS011;51144;53.002;6.506;2023-03-01T16:56:27;20.70;;;16.55;;
64714;SDS011;51144;53.002;6.506;2023-03-01T16:58:54;20.65;;;17.10;;
64714;SDS011;51144;53.002;6.506;2023-03-01T17:01:20;20.08;;;16.55;;
64714;SDS011;51144;53.002;6.506;2023-03-01T17:03:50;19.70;;;17.40;;
64714;SDS011;51144;53.002;6.506;2023-03-01T17:06:17;21.23;;;18.52;;
64714;SDS011;51144;53.002;6.506;2023-03-01T17:08:49;22.27;;;17.67;;
64714;SDS011;51144;53.002;6.506;2023-03-01T17:11:16;20.52;;;18.02;;
64714;SDS011;51144;53.002;6.506;2023-03-01T17:13:43;19.42;;;17.23;;
64714;SDS011;51144;53.002;6.506;2023-03-01T17:16:11;21.13;;;17.63;;
64714;SDS011;51144;53.002;6.506;2023-03-01T17:18:39;38.38;;;17.58;;
64714;SDS011;51144;53.002;6.506;2023-03-01T17:21:05;22.95;;;17.55;;
64714;SDS011;51144;53.002;6.506;2023-03-01T17:23:31;22.35;;;18.90;;
64714;SDS011;51144;53.002;6.506;2023-03-01T17:25:58;22.23;;;18.65;;
64714;SDS011;51144;53.002;6.506;2023-03-01T17:28:25;20.25;;;18.15;;
64714;SDS011;51144;53.002;6.506;2023-03-01T17:30:52;22.30;;;18.65;;
64714;SDS011;51144;53.002;6.506;2023-03-01T17:33:18;20.80;;;18.55;;
64714;SDS011;51144;53.002;6.506;2023-03-01T17:35:45;22.00;;;18.92;;
64714;SDS011;51144;53.002;6.506;2023-03-01T17:38:14;20.73;;;17.70;;
64714;SDS011;51144;53.002;6.506;2023-03-01T17:40:41;23.52;;;17.77;;
64714;SDS011;51144;53.002;6.506;2023-03-01T17:43:07;20.80;;;17.90;;
64714;SDS011;51144;53.002;6.506;2023-03-01T17:45:35;19.45;;;17.40;;
64714;SDS011;51144;53.002;6.506;2023-03-01T17:48:02;23.13;;;17.23;;
64714;SDS011;51144;53.002;6.506;2023-03-01T17:50:28;21.55;;;17.33;;
64714;SDS011;51144;53.002;6.506;2023-03-01T17:52:54;20.13;;;17.58;;
64714;SDS011;51144;53.002;6.506;2023-03-01T17:55:20;19.13;;;16.83;;
64714;SDS011;51144;53.002;6.506;2023-03-01T17:57:46;18.27;;;16.33;;
64714;SDS011;51144;53.002;6.506;2023-03-01T18:00:12;18.60;;;16.63;;
64714;SDS011;51144;53.002;6.506;2023-03-01T18:02:39;18.95;;;16.80;;
64714;SDS011;51144;53.002;6.506;2023-03-01T18:05:05;17.80;;;15.90;;
64714;SDS011;51144;53.002;6.506;2023-03-01T18:07:31;19.33;;;16.55;;
64714;SDS011;51144;53.002;6.506;2023-03-01T18:09:57;20.50;;;16.05;;
64714;SDS011;51144;53.002;6.506;2023-03-01T18:12:23;19.13;;;15.68;;
64714;SDS011;51144;53.002;6.506;2023-03-01T18:14:48;18.55;;;15.52;;
64714;SDS011;51144;53.002;6.506;2023-03-01T18:17:18;19.38;;;16.02;;
64714;SDS011;51144;53.002;6.506;2023-03-01T18:19:45;21.65;;;16.13;;
64714;SDS011;51144;53.002;6.506;2023-03-01T18:22:10;18.90;;;15.52;;
64714;SDS011;51144;53.002;6.506;2023-03-01T18:24:36;19.48;;;16.20;;
64714;SDS011;51144;53.002;6.506;2023-03-01T18:27:02;19.27;;;16.48;;
64714;SDS011;51144;53.002;6.506;2023-03-01T18:29:28;21.30;;;17.20;;
64714;SDS011;51144;53.002;6.506;2023-03-01T18:31:54;20.63;;;16.35;;
64714;SDS011;51144;53.002;6.506;2023-03-01T18:34:20;22.58;;;18.33;;
64714;SDS011;51144;53.002;6.506;2023-03-01T18:36:46;21.30;;;18.73;;
64714;SDS011;51144;53.002;6.506;2023-03-01T18:39:12;19.23;;;17.20;;
64714;SDS011;51144;53.002;6.506;2023-03-01T18:41:39;21.90;;;18.85;;
64714;SDS011;51144;53.002;6.506;2023-03-01T18:44:12;24.35;;;19.65;;
64714;SDS011;51144;53.002;6.506;2023-03-01T18:46:46;22.17;;;19.67;;
64714;SDS011;51144;53.002;6.506;2023-03-01T18:49:13;26.10;;;20.45;;
64714;SDS011;51144;53.002;6.506;2023-03-01T18:51:40;22.33;;;19.83;;
64714;SDS011;51144;53.002;6.506;2023-03-01T18:54:06;24.77;;;20.45;;
64714;SDS011;51144;53.002;6.506;2023-03-01T18:56:34;21.75;;;19.20;;
64714;SDS011;51144;53.002;6.506;2023-03-01T18:58:59;22.35;;;20.00;;
64714;SDS011;51144;53.002;6.506;2023-03-01T19:01:27;21.88;;;19.67;;
64714;SDS011;51144;53.002;6.506;2023-03-01T19:03:55;23.15;;;20.75;;
64714;SDS011;51144;53.002;6.506;2023-03-01T19:06:21;22.85;;;20.35;;
64714;SDS011;51144;53.002;6.506;2023-03-01T19:08:48;22.63;;;20.30;;
64714;SDS011;51144;53.002;6.506;2023-03-01T19:11:16;22.73;;;20.25;;
64714;SDS011;51144;53.002;6.506;2023-03-01T19:13:42;23.42;;;19.95;;
64714;SDS011;51144;53.002;6.506;2023-03-01T19:16:10;23.38;;;21.05;;
64714;SDS011;51144;53.002;6.506;2023-03-01T19:18:37;22.80;;;20.60;;
64714;SDS011;51144;53.002;6.506;2023-03-01T19:21:05;24.48;;;21.92;;
64714;SDS011;51144;53.002;6.506;2023-03-01T19:23:32;24.90;;;22.20;;
64714;SDS011;51144;53.002;6.506;2023-03-01T19:25:59;24.20;;;21.20;;
64714;SDS011;51144;53.002;6.506;2023-03-01T19:28:26;24.17;;;21.67;;
64714;SDS011;51144;53.002;6.506;2023-03-01T19:30:59;28.13;;;21.45;;
64714;SDS011;51144;53.002;6.506;2023-03-01T19:33:29;26.35;;;23.75;;
64714;SDS011;51144;53.002;6.506;2023-03-01T19:35:56;25.55;;;22.90;;
64714;SDS011;51144;53.002;6.506;2023-03-01T19:38:22;26.10;;;23.40;;
64714;SDS011;51144;53.002;6.506;2023-03-01T19:40:49;28.48;;;24.02;;
64714;SDS011;51144;53.002;6.506;2023-03-01T19:43:15;26.77;;;23.80;;
64714;SDS011;51144;53.002;6.506;2023-03-01T19:45:41;28.20;;;24.70;;
64714;SDS011;51144;53.002;6.506;2023-03-01T19:48:07;27.15;;;23.08;;
64714;SDS011;51144;53.002;6.506;2023-03-01T19:50:33;30.55;;;25.08;;
64714;SDS011;51144;53.002;6.506;2023-03-01T19:52:58;27.13;;;24.33;;
64714;SDS011;51144;53.002;6.506;2023-03-01T19:55:24;28.50;;;24.52;;
64714;SDS011;51144;53.002;6.506;2023-03-01T19:57:49;29.23;;;24.48;;
64714;SDS011;51144;53.002;6.506;2023-03-01T20:00:15;31.50;;;26.60;;